Ernestville, Missouri
Current Conditions -  °F | °C
As of 5:35 PM on Saturday 25 Oct 2014 (Local Time) from KRCM Reporting Station
Clear Clear  
Wind Chill: 75°   Ceiling: Unl
Heat Index: 75°   Visibility: 10mi
Dew Point: 57°   Wind: 0mph
Humidity: 53%   Direction: NA
Pressure: 30.02"   Gusts: NA
Location:  38.9694°N, 93.6269°W
Report Text: KRCM 252235Z AUTO 00000KT 10SM CLR 24/14 A3002 RMK AO2
Loading
Personal Weather Stations






























Interactive Weather Map
Tropical Storm Tracking
New forecast layout! Learn more

10-Day Weather Forecast

Advertisements
Track Severe Weather on mobile